Lancaster, Kansas
Current Conditions -  °F | °C
As of 7:53 AM on Monday 24 Nov 2014 (Local Time) from KSTJ Reporting Station
Overcast Overcast  
Wind Chill: -5°   Ceiling: 3400
Heat Index:   Visibility: 10mi
Dew Point: -5°   Wind: 13mph
Humidity: 69%   Direction: 310°NW
Pressure: 29.66"   Gusts: NA
Location:  39.57°N, 95.3°W
Report Text: KSTJ 241353Z 31011KT 10SM OVC034 00/M05 A2966 RMK AO2 SLP050 T00001050
Loading
Personal Weather Stations






























Interactive Weather Map New forecast layout! Learn more

10-Day Weather Forecast

Advertisements
Track Severe Weather on mobile